Date,TemperatureHighF,TemperatureAvgF,TemperatureLowF,DewpointHighF,DewpointAvgF,DewpointLowF,HumidityHigh,HumidityAvg,HumidityLow,PressureMaxIn,PressureMinIn,WindSpeedMaxMPH,WindSpeedAvgMPH,GustSpeedMaxMPH,PrecipitationSumIn
2012-10-2,63,63,63,26,26,26,24,24,24,29.99,29.99,1,0,2,0.00
2012-10-3,86,74,58,27,24,20,25,16,10,30.07,29.98,21,14,21,0.00
2012-10-4,86,68,46,36,28,21,42,24,13,30.18,30.05,26,13,26,0.00
2012-10-5,84,68,52,38,30,24,40,26,13,30.12,29.97,21,8,21,0.00
2012-10-6,80,61,46,41,34,24,64,40,16,30.07,29.90,25,7,25,0.50
2012-10-7,71,53,41,37,30,8,71,45,10,30.11,29.97,15,6,15,0.00
2012-10-8,76,56,35,35,22,9,36,27,18,30.11,29.95,8,4,8,0.00
2012-10-9,81,61,42,36,27,20,45,29,16,30.08,29.98,12,4,12,0.08
2012-10-10,78,59,43,39,31,22,59,36,22,30.16,30.01,14,5,14,0.00
2012-10-11,79,66,45,43,37,25,54,36,22,30.10,30.02,17,8,17,0.00
2012-10-12,76,61,48,53,41,27,82,50,21,30.09,29.90,25,10,25,0.17
2012-10-13,64,52,38,36,33,28,70,50,30,30.16,30.03,16,8,16,0.00
2012-10-14,73,56,39,41,35,28,77,48,26,30.26,30.14,14,7,14,0.00
2012-10-15,77,58,40,38,32,25,65,40,21,30.19,29.99,13,6,13,0.00
2012-10-16,80,61,42,36,28,20,57,31,13,30.01,29.82,18,9,18,0.00
2012-10-17,75,61,47,37,17,-3,41,21,6,30.02,29.85,20,12,20,0.00
2012-10-18,74,63,49,19,12,0,21,14,11,30.10,30.01,17,13,17,0.00
2012-10-19,79,61,43,26,18,12,30,20,11,30.10,29.96,14,12,14,0.00
2012-10-20,80,60,42,27,21,14,35,23,12,30.00,29.84,12,10,12,0.00
2012-10-21,77,60,42,40,30,20,57,33,19,29.99,29.87,16,10,16,0.00
2012-10-22,75,60,44,38,31,24,50,34,22,30.01,29.90,13,9,13,0.00
2012-10-23,77,60,40,37,30,24,57,35,18,30.01,29.90,18,7,18,0.00
2012-10-24,78,63,46,34,27,20,43,27,13,29.95,29.76,25,9,25,0.00
2012-10-25,62,49,38,22,16,8,43,28,17,30.09,29.91,12,8,12,0.00
2012-10-26,54,42,34,24,16,7,51,36,22,30.23,30.08,14,6,14,0.00
2012-10-27,62,43,26,26,18,10,66,39,19,30.17,30.02,10,6,10,0.00
2012-10-28,69,51,35,24,15,7,33,25,16,30.15,30.04,12,6,12,0.00
2012-10-29,69,46,36,27,18,13,41,32,19,30.18,30.12,8,6,8,0.00
2012-11-14,58,58,57,18,18,17,22,21,20,30.17,30.14,3,2,8,0.00
2012-11-15,39,39,39,10,10,10,30,30,30,30.23,30.23,6,6,7,0.00
2012-11-18,61,61,61,38,38,38,43,43,43,30.04,30.04,5,5,7,0.00
2012-11-20,61,55,48,23,21,18,30,26,23,30.16,30.14,3,3,6,0.00
2012-11-22,65,65,65,29,29,29,26,26,26,30.10,30.10,1,1,3,0.00
2012-11-23,37,37,37,20,20,20,49,49,49,30.28,30.28,3,3,5,0.00
2012-11-24,55,44,36,26,20,14,40,38,33,30.22,30.06,5,2,6,0.00
2012-11-25,59,40,25,21,15,9,50,39,23,30.04,29.96,5,2,8,0.00
2012-11-26,61,46,31,22,17,12,45,32,22,30.11,29.99,6,3,8,0.00
2012-11-27,54,44,33,26,21,15,47,40,34,30.24,30.22,2,2,5,0.00
2012-11-29,61,49,29,27,22,14,53,36,27,30.12,30.09,7,4,9,0.00
2012-11-30,32,32,32,21,21,21,64,64,64,30.13,30.13,1,1,3,0.00
2012-12-1,32,32,32,18,18,18,57,57,57,30.07,30.07,3,3,3,0.00
2012-12-2,61,48,33,24,20,14,52,34,24,30.08,29.98,7,4,9,0.00
2012-12-3,64,48,35,34,24,13,43,39,29,30.07,29.98,5,2,10,0.00
2012-12-4,56,49,43,31,26,21,64,44,25,30.21,30.15,7,5,8,0.00
2012-12-5,51,46,41,26,22,18,40,39,38,30.18,30.00,2,2,5,0.00
2012-12-6,54,38,28,26,19,14,60,48,33,29.96,29.95,5,3,7,0.00
2012-12-7,41,41,41,22,22,22,47,47,47,29.88,29.88,1,1,3,0.00
2012-12-8,58,58,58,26,26,26,29,29,29,29.81,29.81,5,5,6,0.00
2012-12-9,40,30,18,20,10,-4,61,43,33,30.07,29.84,17,9,22,0.00
2012-12-11,25,22,19,7,6,6,55,50,46,30.01,29.97,3,2,5,0.00
2012-12-13,50,36,20,17,12,4,50,37,27,30.06,29.99,3,3,5,0.00
2012-12-15,37,33,29,28,24,20,70,70,69,29.92,29.78,1,1,2,0.00
2012-12-17,22,22,22,16,16,16,76,76,76,29.99,29.99,1,1,2,0.00
2012-12-19,38,32,27,28,19,10,67,58,50,30.02,29.61,7,4,12,0.00
2012-12-20,20,20,20,6,6,6,55,55,55,30.30,30.30,2,2,2,0.00
2012-12-21,25,19,13,4,3,2,63,52,40,30.25,30.13,1,1,3,0.00
2012-12-22,33,26,20,10,8,6,53,46,38,30.13,30.04,1,0,2,0.00
2012-12-23,16,16,16,6,6,6,64,64,64,30.05,30.05,1,1,1,0.00
2012-12-25,25,25,25,12,12,12,59,59,59,29.98,29.98,2,2,3,0.00
2012-12-27,21,21,21,11,11,11,65,65,65,29.79,29.79,1,1,1,0.00
2012-12-29,36,25,14,10,8,6,71,52,34,30.14,30.08,1,0,5,0.00
2012-12-30,33,33,33,15,15,15,47,47,47,29.80,29.80,0,0,0,0.00